createdAt,value
2022-09-12T00:00:19.786Z,24.92
2022-09-12T00:02:46.165Z,24.28
2022-09-12T00:05:12.494Z,24.15
2022-09-12T00:07:38.815Z,23.71
2022-09-12T00:10:05.241Z,23.77
2022-09-12T00:12:31.581Z,23.95
2022-09-12T00:14:57.923Z,23.94
2022-09-12T00:17:24.292Z,24.02
2022-09-12T00:19:50.676Z,24.03
2022-09-12T00:22:16.994Z,23.78
2022-09-12T00:24:43.362Z,23.85
2022-09-12T00:27:09.710Z,23.86
2022-09-12T00:29:36.049Z,24.03
2022-09-12T00:32:02.523Z,24.13
2022-09-12T00:34:28.851Z,23.67
2022-09-12T00:36:55.197Z,25.84
2022-09-12T00:39:21.678Z,24.78
2022-09-12T00:41:48.013Z,24.18
2022-09-12T00:44:14.361Z,24.16
2022-09-12T00:46:40.728Z,23.88
2022-09-12T00:49:07.081Z,23.94
2022-09-12T00:51:33.418Z,24.00
2022-09-12T00:53:59.797Z,24.00
2022-09-12T00:56:26.136Z,24.07
2022-09-12T00:58:52.472Z,23.86
2022-09-12T01:01:19.007Z,24.03
2022-09-12T01:03:45.422Z,23.88
2022-09-12T01:06:11.756Z,24.21
2022-09-12T01:08:38.127Z,23.96
2022-09-12T01:11:04.468Z,24.19
2022-09-12T01:13:30.808Z,24.46
2022-09-12T01:15:57.187Z,25.55
2022-09-12T01:18:23.530Z,24.68
2022-09-12T01:20:49.877Z,24.23
2022-09-12T01:23:16.256Z,23.87
2022-09-12T01:25:42.586Z,24.00
2022-09-12T01:28:08.954Z,23.95
2022-09-12T01:30:35.322Z,23.83
2022-09-12T01:33:01.652Z,23.96
2022-09-12T01:35:27.991Z,24.11
2022-09-12T01:37:54.364Z,24.33
2022-09-12T01:40:20.697Z,24.08
2022-09-12T01:42:47.049Z,24.26
2022-09-12T01:45:13.442Z,24.15
2022-09-12T01:47:39.801Z,24.02
2022-09-12T01:50:06.161Z,24.16
2022-09-12T01:52:32.538Z,25.54
2022-09-12T01:54:58.883Z,25.19
2022-09-12T01:57:25.226Z,24.44
2022-09-12T01:59:51.604Z,24.21
2022-09-12T02:02:18.008Z,23.85
2022-09-12T02:04:44.379Z,24.00
2022-09-12T02:07:10.748Z,24.01
2022-09-12T02:09:37.089Z,24.17
2022-09-12T02:12:03.428Z,23.97
2022-09-12T02:14:29.776Z,24.24
2022-09-12T02:16:56.114Z,24.27
2022-09-12T02:19:22.460Z,24.01
2022-09-12T02:21:48.829Z,24.16
2022-09-12T02:24:15.168Z,24.23
2022-09-12T02:26:41.523Z,24.18
2022-09-12T02:29:07.984Z,23.89
2022-09-12T02:31:34.331Z,25.93
2022-09-12T02:34:00.676Z,24.94
2022-09-12T02:36:27.100Z,24.17
2022-09-12T02:38:53.443Z,24.30
2022-09-12T02:41:19.782Z,24.14
2022-09-12T02:43:46.228Z,24.04
2022-09-12T02:46:12.570Z,24.15
2022-09-12T02:48:41.388Z,23.99
2022-09-12T02:51:07.938Z,24.15
2022-09-12T02:53:34.268Z,24.16
2022-09-12T02:56:00.601Z,23.93
2022-09-12T02:58:26.946Z,24.19
2022-09-12T03:00:53.331Z,24.48
2022-09-12T03:03:19.703Z,24.08
2022-09-12T03:05:46.144Z,24.36
2022-09-12T03:08:12.475Z,24.12
2022-09-12T03:10:38.824Z,26.01
2022-09-12T03:13:05.276Z,25.04
2022-09-12T03:15:31.629Z,24.43
2022-09-12T03:17:57.961Z,24.09
2022-09-12T03:20:24.337Z,24.16
2022-09-12T03:22:51.283Z,24.08
2022-09-12T03:25:17.647Z,24.23
2022-09-12T03:27:44.014Z,24.02
2022-09-12T03:30:10.357Z,24.15
2022-09-12T03:32:36.701Z,24.01
2022-09-12T03:35:03.074Z,24.35
2022-09-12T03:37:29.428Z,24.14
2022-09-12T03:39:55.822Z,24.08
2022-09-12T03:42:22.284Z,24.25
2022-09-12T03:44:48.638Z,24.02
2022-09-12T03:47:14.977Z,24.68
2022-09-12T03:49:41.352Z,25.66
2022-09-12T03:52:07.690Z,24.91
2022-09-12T03:54:34.014Z,24.49
2022-09-12T03:57:00.374Z,24.44
2022-09-12T03:59:26.725Z,24.12
2022-09-12T04:01:53.080Z,23.71
2022-09-12T04:04:19.488Z,23.65
2022-09-12T04:06:45.833Z,23.38
2022-09-12T04:09:12.164Z,23.61
2022-09-12T04:11:38.537Z,23.76
2022-09-12T04:14:04.876Z,23.44
2022-09-12T04:16:31.230Z,23.58
2022-09-12T04:18:57.662Z,23.60
2022-09-12T04:21:24.024Z,23.40
2022-09-12T04:23:50.367Z,25.29
2022-09-12T04:26:16.843Z,24.69
2022-09-12T04:28:43.256Z,24.03
2022-09-12T04:31:09.626Z,23.71
2022-09-12T04:33:36.143Z,23.60
2022-09-12T04:36:02.484Z,23.35
2022-09-12T04:38:28.815Z,23.42
2022-09-12T04:40:55.185Z,23.85
2022-09-12T04:43:21.535Z,23.79
2022-09-12T04:45:47.891Z,23.91
2022-09-12T04:48:14.277Z,23.59
2022-09-12T04:50:40.626Z,24.06
2022-09-12T04:53:06.966Z,23.86
2022-09-12T04:55:33.332Z,24.19
2022-09-12T04:57:59.664Z,24.56
2022-09-12T05:00:26.007Z,25.26
2022-09-12T05:02:52.370Z,24.23
2022-09-12T05:05:18.720Z,23.76
2022-09-12T05:07:45.054Z,23.99
2022-09-12T05:10:11.478Z,23.74
2022-09-12T05:12:37.810Z,24.03
2022-09-12T05:15:04.140Z,23.86
2022-09-12T05:17:30.487Z,24.12
2022-09-12T05:19:56.835Z,24.04
2022-09-12T05:22:23.232Z,24.13
2022-09-12T05:24:50.754Z,24.02
2022-09-12T05:27:17.212Z,24.27
2022-09-12T05:29:43.552Z,23.92
2022-09-12T05:32:09.951Z,24.88
2022-09-12T05:34:36.275Z,25.90
2022-09-12T05:37:02.604Z,24.69
2022-09-12T05:39:28.967Z,24.17
2022-09-12T05:41:55.325Z,23.86
2022-09-12T05:44:21.647Z,23.75
2022-09-12T05:46:48.132Z,24.02
2022-09-12T05:49:14.484Z,23.93
2022-09-12T05:51:40.843Z,24.05
2022-09-12T05:54:07.241Z,24.04
2022-09-12T05:56:33.602Z,24.14
2022-09-12T05:59:00.009Z,24.52
2022-09-12T06:01:26.401Z,24.29
2022-09-12T06:03:52.843Z,24.55
2022-09-12T06:06:19.219Z,25.94
2022-09-12T06:08:45.566Z,24.94
2022-09-12T06:11:11.929Z,24.82
2022-09-12T06:13:38.302Z,24.56
2022-09-12T06:16:04.812Z,24.56
2022-09-12T06:18:31.147Z,24.34
2022-09-12T06:20:57.501Z,24.72
2022-09-12T06:23:23.928Z,25.13
2022-09-12T06:25:50.267Z,25.23
2022-09-12T06:28:16.619Z,24.96
2022-09-12T06:30:43.262Z,25.07
2022-09-12T06:33:09.659Z,25.43
2022-09-12T06:35:36.037Z,26.93
2022-09-12T06:38:02.443Z,26.45
2022-09-12T06:40:28.845Z,25.77
2022-09-12T06:42:55.223Z,25.50
2022-09-12T06:45:21.600Z,25.31
2022-09-12T06:47:47.991Z,25.15
2022-09-12T06:50:14.399Z,25.40
2022-09-12T06:52:41.020Z,25.66
2022-09-12T06:55:07.363Z,25.35
2022-09-12T06:57:33.700Z,25.71
2022-09-12T07:00:00.274Z,25.84
2022-09-12T07:02:26.675Z,25.95
2022-09-12T07:04:53.058Z,26.93
2022-09-12T07:07:19.672Z,27.16
2022-09-12T07:09:46.007Z,26.26
2022-09-12T07:12:12.376Z,25.91
2022-09-12T07:14:38.883Z,25.93
2022-09-12T07:17:05.344Z,26.04
2022-09-12T07:19:31.706Z,25.80
2022-09-12T07:21:58.825Z,26.10
2022-09-12T07:24:25.322Z,26.15
2022-09-12T07:26:51.715Z,26.07
2022-09-12T07:29:35.858Z,26.45
2022-09-12T07:32:03.630Z,26.49
2022-09-12T07:34:30.019Z,27.86
2022-09-12T07:36:56.362Z,27.69
2022-09-12T07:39:22.741Z,26.53
2022-09-12T07:41:49.307Z,26.22
2022-09-12T07:44:15.655Z,26.17
2022-09-12T07:46:42.011Z,26.11
2022-09-12T07:49:08.675Z,26.21
2022-09-12T07:51:35.106Z,26.61
2022-09-12T07:54:01.487Z,26.65
2022-09-12T07:56:31.149Z,26.54
2022-09-12T07:58:58.335Z,26.79
2022-09-12T08:01:25.218Z,26.83
2022-09-12T08:03:51.733Z,27.60
2022-09-12T08:06:18.073Z,28.08
2022-09-12T08:08:44.504Z,27.19
2022-09-12T08:11:10.922Z,26.48
2022-09-12T08:13:37.257Z,26.50
2022-09-12T08:16:03.747Z,26.66
2022-09-12T08:18:30.299Z,26.53
2022-09-12T08:20:56.650Z,26.54
2022-09-12T08:23:23.004Z,26.57
2022-09-12T08:25:49.388Z,26.79
2022-09-12T08:28:15.731Z,26.94
2022-09-12T08:30:42.142Z,26.84
2022-09-12T08:33:08.784Z,26.95
2022-09-12T08:35:35.184Z,28.67
2022-09-12T08:38:01.646Z,27.29
2022-09-12T08:40:28.121Z,26.52
2022-09-12T08:42:54.501Z,26.34
2022-09-12T08:45:20.882Z,26.27
2022-09-12T08:47:47.326Z,26.39
2022-09-12T08:50:13.696Z,26.74
2022-09-12T08:52:40.083Z,26.65
2022-09-12T08:55:06.518Z,26.60
2022-09-12T08:57:32.864Z,26.83
2022-09-12T08:59:59.226Z,26.97
2022-09-12T09:02:25.613Z,26.43
2022-09-12T09:04:51.982Z,28.71
2022-09-12T09:07:18.342Z,27.86
2022-09-12T09:09:44.728Z,26.65
2022-09-12T09:12:11.193Z,26.34
2022-09-12T09:14:37.578Z,26.29
2022-09-12T09:17:03.942Z,26.22
2022-09-12T09:19:30.308Z,26.26
2022-09-12T09:21:56.835Z,26.83
2022-09-12T09:24:23.366Z,26.68
2022-09-12T09:26:49.744Z,26.63
2022-09-12T09:29:16.189Z,26.63
2022-09-12T09:31:42.586Z,26.67
2022-09-12T09:34:08.976Z,27.06
2022-09-12T09:36:35.341Z,28.33
2022-09-12T09:39:04.099Z,26.88
2022-09-12T09:41:30.571Z,26.44
2022-09-12T09:43:56.962Z,26.85
2022-09-12T09:46:23.437Z,26.35
2022-09-12T09:48:49.829Z,26.42
2022-09-12T09:51:16.172Z,26.75
2022-09-12T09:53:42.573Z,26.86
2022-09-12T09:56:08.993Z,26.95
2022-09-12T09:58:35.404Z,26.83
2022-09-12T10:01:02.137Z,26.94
2022-09-12T10:03:28.525Z,26.90
2022-09-12T10:05:54.874Z,28.52
2022-09-12T10:08:21.288Z,27.60
2022-09-12T10:10:47.697Z,27.16
2022-09-12T10:13:14.040Z,26.82
2022-09-12T10:15:40.592Z,26.50
2022-09-12T10:18:07.006Z,26.66
2022-09-12T10:20:33.411Z,26.89
2022-09-12T10:22:59.805Z,26.74
2022-09-12T10:25:26.201Z,26.41
2022-09-12T10:27:52.599Z,26.83
2022-09-12T10:30:19.184Z,26.73
2022-09-12T10:32:45.578Z,27.05
2022-09-12T10:35:11.950Z,27.09
2022-09-12T10:37:38.350Z,28.45
2022-09-12T10:40:04.756Z,27.08
2022-09-12T10:42:31.254Z,27.03
2022-09-12T10:44:57.733Z,26.62
2022-09-12T10:47:24.110Z,26.77
2022-09-12T10:49:50.556Z,26.49
2022-09-12T10:52:16.935Z,26.70
2022-09-12T10:54:43.338Z,26.63
2022-09-12T10:57:09.723Z,26.59
2022-09-12T10:59:36.139Z,27.22
2022-09-12T11:02:02.551Z,26.91
2022-09-12T11:04:28.932Z,27.06
2022-09-12T11:06:55.479Z,28.13
2022-09-12T11:09:21.862Z,27.89
2022-09-12T11:11:48.225Z,26.81
2022-09-12T11:14:14.625Z,26.38
2022-09-12T11:16:42.925Z,26.43
2022-09-12T11:19:09.565Z,26.62
2022-09-12T11:21:36.026Z,26.33
2022-09-12T11:24:02.376Z,26.62
2022-09-12T11:26:28.774Z,26.47
2022-09-12T11:28:55.267Z,26.11
2022-09-12T11:31:21.676Z,26.06
2022-09-12T11:33:48.143Z,26.36
2022-09-12T11:36:14.638Z,26.28
2022-09-12T11:38:41.006Z,28.30
2022-09-12T11:41:07.360Z,27.13
2022-09-12T11:43:33.873Z,26.18
2022-09-12T11:46:00.258Z,26.38
2022-09-12T11:48:26.645Z,26.07
2022-09-12T11:50:53.067Z,26.12
2022-09-12T11:53:19.407Z,26.04
2022-09-12T11:55:45.777Z,25.90
2022-09-12T11:58:12.245Z,25.97
2022-09-12T12:00:38.643Z,25.95
2022-09-12T12:03:05.007Z,25.62
2022-09-12T12:05:31.417Z,25.92
2022-09-12T12:07:57.813Z,25.94
2022-09-12T12:10:24.203Z,27.28
2022-09-12T12:12:50.586Z,26.06
2022-09-12T12:15:16.970Z,25.69
2022-09-12T12:17:43.306Z,25.56
2022-09-12T12:20:09.688Z,25.47
2022-09-12T12:22:36.093Z,25.68
2022-09-12T12:25:02.462Z,25.52
2022-09-12T12:27:28.952Z,25.63
2022-09-12T12:29:55.321Z,25.58
2022-09-12T12:32:21.706Z,25.32
2022-09-12T12:34:48.090Z,25.73
2022-09-12T12:37:14.538Z,25.42
2022-09-12T12:39:40.991Z,25.61
2022-09-12T12:42:07.406Z,26.87
2022-09-12T12:44:33.795Z,25.55
2022-09-12T12:47:00.181Z,25.16
2022-09-12T12:49:26.560Z,25.12
2022-09-12T12:51:52.920Z,24.97
2022-09-12T12:54:19.267Z,24.89
2022-09-12T12:56:45.718Z,25.05
2022-09-12T12:59:12.165Z,24.73
2022-09-12T13:01:38.576Z,24.91
2022-09-12T13:04:05.038Z,25.24
2022-09-12T13:06:31.391Z,24.58
2022-09-12T13:08:57.787Z,25.06
2022-09-12T13:11:24.226Z,26.27
2022-09-12T13:13:50.610Z,25.76
2022-09-12T13:16:17.036Z,24.67
2022-09-12T13:18:46.635Z,24.69
2022-09-12T13:21:13.140Z,24.69
2022-09-12T13:23:39.536Z,24.26
2022-09-12T13:26:06.097Z,24.38
2022-09-12T13:28:32.491Z,24.37
2022-09-12T13:30:58.989Z,24.38
2022-09-12T13:33:25.536Z,24.03
2022-09-12T13:35:51.894Z,23.99
2022-09-12T13:38:18.237Z,24.14
2022-09-12T13:40:44.683Z,24.16
2022-09-12T13:43:11.053Z,25.57
2022-09-12T13:45:37.411Z,24.51
2022-09-12T13:48:03.809Z,24.00
2022-09-12T13:50:30.326Z,23.81
2022-09-12T13:52:56.696Z,23.81
2022-09-12T13:55:23.076Z,23.92
2022-09-12T13:57:52.148Z,23.84
2022-09-12T14:00:18.507Z,23.57
2022-09-12T14:02:44.995Z,23.43
2022-09-12T14:05:11.370Z,23.51
2022-09-12T14:07:37.761Z,23.73
2022-09-12T14:10:04.239Z,23.56
2022-09-12T14:12:30.580Z,24.06
2022-09-12T14:14:56.933Z,25.12
2022-09-12T14:17:23.852Z,23.96
2022-09-12T14:19:50.243Z,24.05
2022-09-12T14:22:16.602Z,24.24
2022-09-12T14:24:43.030Z,23.99
2022-09-12T14:27:09.411Z,24.34
2022-09-12T14:29:35.749Z,24.17
2022-09-12T14:32:02.206Z,24.69
2022-09-12T14:34:28.567Z,24.62
2022-09-12T14:36:54.899Z,24.63
2022-09-12T14:39:21.350Z,24.93
2022-09-12T14:41:47.689Z,24.54
2022-09-12T14:44:14.075Z,25.45
2022-09-12T14:46:40.511Z,26.09
2022-09-12T14:49:09.494Z,25.01
2022-09-12T14:51:35.838Z,24.77
2022-09-12T14:54:02.237Z,24.27
2022-09-12T14:56:28.593Z,24.22
2022-09-12T14:58:54.926Z,24.50
2022-09-12T15:01:21.333Z,24.57
2022-09-12T15:03:49.772Z,24.29
2022-09-12T15:06:16.542Z,24.81
2022-09-12T15:08:42.954Z,24.79
2022-09-12T15:11:09.292Z,24.57
2022-09-12T15:13:35.644Z,24.60
2022-09-12T15:16:02.151Z,24.49
2022-09-12T15:18:28.548Z,26.07
2022-09-12T15:20:54.924Z,24.95
2022-09-12T15:23:21.290Z,24.86
2022-09-12T15:25:47.619Z,24.61
2022-09-12T15:28:13.967Z,24.76
2022-09-12T15:30:40.401Z,24.91
2022-09-12T15:33:06.814Z,24.62
2022-09-12T15:35:33.157Z,25.06
2022-09-12T15:37:59.905Z,25.05
2022-09-12T15:40:26.293Z,25.17
2022-09-12T15:42:52.676Z,25.23
2022-09-12T15:45:19.160Z,25.56
2022-09-12T15:47:45.503Z,25.57
2022-09-12T15:50:11.838Z,26.40
2022-09-12T15:52:38.325Z,26.72
2022-09-12T15:55:04.675Z,25.55
2022-09-12T15:57:31.046Z,25.40
2022-09-12T15:59:57.408Z,25.53
2022-09-12T16:02:23.826Z,25.71
2022-09-12T16:04:50.209Z,25.28
2022-09-12T16:07:16.582Z,25.37
2022-09-12T16:09:42.933Z,25.89
2022-09-12T16:12:09.358Z,25.52
2022-09-12T16:14:35.731Z,25.77
2022-09-12T16:17:02.128Z,25.68
2022-09-12T16:19:28.493Z,25.51
2022-09-12T16:21:54.878Z,26.23
2022-09-12T16:24:21.203Z,27.22
2022-09-12T16:26:47.540Z,26.01
2022-09-12T16:29:14.061Z,25.57
2022-09-12T16:31:40.427Z,25.04
2022-09-12T16:34:06.807Z,25.19
2022-09-12T16:36:33.248Z,25.16
2022-09-12T16:39:02.618Z,25.07
2022-09-12T16:41:28.969Z,25.22
2022-09-12T16:43:55.423Z,25.41
2022-09-12T16:46:21.864Z,25.52
2022-09-12T16:48:52.039Z,25.88
2022-09-12T16:51:18.967Z,26.13
2022-09-12T16:53:45.319Z,25.83
2022-09-12T16:56:11.713Z,27.44
2022-09-12T16:58:41.796Z,26.78
2022-09-12T17:01:08.499Z,25.87
2022-09-12T17:03:34.889Z,25.58
2022-09-12T17:06:01.349Z,25.78
2022-09-12T17:08:27.691Z,25.87
2022-09-12T17:10:54.028Z,25.82
2022-09-12T17:13:20.415Z,25.31
2022-09-12T17:15:46.812Z,25.71
2022-09-12T17:18:13.252Z,25.67
2022-09-12T17:20:39.631Z,25.55
2022-09-12T17:23:09.642Z,25.56
2022-09-12T17:25:36.304Z,25.63
2022-09-12T17:28:02.888Z,25.66
2022-09-12T17:30:29.230Z,27.69
2022-09-12T17:32:55.575Z,26.56
2022-09-12T17:35:22.050Z,25.85
2022-09-12T17:37:48.386Z,26.21
2022-09-12T17:40:14.761Z,25.86
2022-09-12T17:42:41.218Z,25.88
2022-09-12T17:45:07.609Z,26.27
2022-09-12T17:47:33.934Z,25.84
2022-09-12T17:50:20.748Z,25.98
2022-09-12T17:52:46.736Z,25.82
2022-09-12T17:55:13.147Z,25.85
2022-09-12T17:57:39.503Z,25.87
2022-09-12T18:00:05.847Z,26.16
2022-09-12T18:02:33.350Z,25.74
2022-09-12T18:04:59.848Z,27.18
2022-09-12T18:07:26.179Z,26.78
2022-09-12T18:09:52.647Z,25.91
2022-09-12T18:12:19.195Z,25.94
2022-09-12T18:14:45.574Z,25.70
2022-09-12T18:17:11.928Z,25.69
2022-09-12T18:19:38.267Z,25.30
2022-09-12T18:22:04.629Z,25.38
2022-09-12T18:24:31.098Z,25.76
2022-09-12T18:26:57.427Z,25.47
2022-09-12T18:29:23.779Z,25.58
2022-09-12T18:31:50.148Z,25.76
2022-09-12T18:34:16.504Z,25.52
2022-09-12T18:36:42.878Z,25.94
2022-09-12T18:39:09.226Z,25.96
2022-09-12T18:41:35.564Z,25.19
2022-09-12T18:44:01.894Z,27.14
2022-09-12T18:46:28.353Z,26.17
2022-09-12T18:48:54.789Z,25.77
2022-09-12T18:51:21.176Z,25.48
2022-09-12T18:53:47.707Z,25.42
2022-09-12T18:56:14.094Z,25.42
2022-09-12T18:58:40.453Z,25.41
2022-09-12T19:01:06.960Z,25.67
2022-09-12T19:03:33.352Z,25.41
2022-09-12T19:05:59.709Z,25.55
2022-09-12T19:08:26.092Z,25.77
2022-09-12T19:10:52.433Z,25.64
2022-09-12T19:13:18.802Z,25.46
2022-09-12T19:15:45.228Z,25.87
2022-09-12T19:18:11.600Z,25.84
2022-09-12T19:20:37.999Z,27.17
2022-09-12T19:23:04.431Z,27.17
2022-09-12T19:25:30.782Z,26.30
2022-09-12T19:27:57.141Z,25.81
2022-09-12T19:30:23.530Z,25.86
2022-09-12T19:32:49.890Z,25.83
2022-09-12T19:35:16.232Z,25.60
2022-09-12T19:37:42.628Z,25.58
2022-09-12T19:40:09.037Z,25.45
2022-09-12T19:42:35.427Z,25.70
2022-09-12T19:45:01.818Z,25.66
2022-09-12T19:47:28.183Z,25.75
2022-09-12T19:49:54.573Z,25.86
2022-09-12T19:52:20.968Z,25.82
2022-09-12T19:54:47.331Z,25.78
2022-09-12T19:57:13.705Z,25.91
2022-09-12T19:59:40.152Z,26.21
2022-09-12T20:02:06.566Z,25.69
2022-09-12T20:04:32.978Z,27.25
2022-09-12T20:06:59.446Z,26.52
2022-09-12T20:09:25.800Z,25.91
2022-09-12T20:11:52.138Z,25.78
2022-09-12T20:14:18.518Z,25.67
2022-09-12T20:16:44.867Z,25.93
2022-09-12T20:19:11.212Z,25.69
2022-09-12T20:21:37.675Z,25.97
2022-09-12T20:24:04.090Z,25.79
2022-09-12T20:26:30.457Z,26.06
2022-09-12T20:28:56.822Z,25.90
2022-09-12T20:31:23.205Z,26.07
2022-09-12T20:33:51.838Z,25.67
2022-09-12T20:36:18.578Z,26.10
2022-09-12T20:38:46.430Z,25.94
2022-09-12T20:41:12.767Z,26.03
2022-09-12T20:43:39.173Z,25.55
2022-09-12T20:46:05.589Z,27.27
2022-09-12T20:48:31.973Z,26.21
2022-09-12T20:50:58.372Z,26.04
2022-09-12T20:53:24.730Z,26.00
2022-09-12T20:55:51.103Z,25.90
2022-09-12T20:58:17.502Z,25.64
2022-09-12T21:00:43.876Z,25.85
2022-09-12T21:03:10.238Z,25.85
2022-09-12T21:05:36.655Z,25.81
2022-09-12T21:08:02.995Z,25.70
2022-09-12T21:10:29.360Z,26.04
2022-09-12T21:12:55.745Z,25.75
2022-09-12T21:15:22.150Z,25.81
2022-09-12T21:17:48.501Z,26.08
2022-09-12T21:20:14.895Z,25.75
2022-09-12T21:22:41.250Z,26.10
2022-09-12T21:25:07.580Z,25.58
2022-09-12T21:27:34.018Z,27.31
2022-09-12T21:30:00.352Z,26.04
2022-09-12T21:32:26.703Z,25.73
2022-09-12T21:34:54.406Z,25.74
2022-09-12T21:37:20.751Z,25.75
2022-09-12T21:39:47.140Z,25.76
2022-09-12T21:42:13.635Z,25.74
2022-09-12T21:44:39.993Z,25.77
2022-09-12T21:47:06.338Z,25.53
2022-09-12T21:49:32.716Z,25.58
2022-09-12T21:51:59.068Z,25.92
2022-09-12T21:54:25.462Z,25.86
2022-09-12T21:56:51.823Z,25.67
2022-09-12T21:59:18.174Z,25.90
2022-09-12T22:01:44.558Z,26.06
2022-09-12T22:04:10.995Z,26.03
2022-09-12T22:06:37.351Z,26.35
2022-09-12T22:09:03.694Z,26.78
2022-09-12T22:11:30.152Z,26.24
2022-09-12T22:13:56.519Z,25.93
2022-09-12T22:16:22.898Z,25.39
2022-09-12T22:18:50.142Z,25.67
2022-09-12T22:21:16.489Z,25.71
2022-09-12T22:23:42.826Z,25.51
2022-09-12T22:26:09.213Z,25.71
2022-09-12T22:28:35.575Z,25.82
2022-09-12T22:31:02.402Z,25.83
2022-09-12T22:33:28.807Z,25.47
2022-09-12T22:35:55.182Z,25.48
2022-09-12T22:38:21.536Z,25.61
2022-09-12T22:40:47.893Z,25.58
2022-09-12T22:43:14.234Z,25.96
2022-09-12T22:45:40.589Z,25.23
2022-09-12T22:48:09.175Z,27.06
2022-09-12T22:50:35.816Z,26.40
2022-09-12T22:53:02.147Z,26.02
2022-09-12T22:55:28.583Z,25.79
2022-09-12T22:57:54.941Z,25.40
2022-09-12T23:00:21.288Z,25.54
2022-09-12T23:02:47.643Z,25.38
2022-09-12T23:05:13.992Z,25.62
2022-09-12T23:07:40.326Z,25.79
2022-09-12T23:10:06.691Z,25.46
2022-09-12T23:12:33.038Z,25.77
2022-09-12T23:14:59.399Z,25.74
2022-09-12T23:17:25.765Z,25.85
2022-09-12T23:19:52.111Z,25.92
2022-09-12T23:22:18.472Z,25.83
2022-09-12T23:24:44.874Z,25.79
2022-09-12T23:27:11.211Z,25.76
2022-09-12T23:29:37.554Z,27.08
2022-09-12T23:32:03.923Z,26.00
2022-09-12T23:34:30.280Z,25.79
2022-09-12T23:36:56.624Z,25.68
2022-09-12T23:39:22.982Z,25.60
2022-09-12T23:41:49.323Z,25.37
2022-09-12T23:44:15.667Z,25.43
2022-09-12T23:46:42.050Z,25.47
2022-09-12T23:49:08.688Z,25.72
2022-09-12T23:51:35.017Z,25.68
2022-09-12T23:54:01.453Z,25.57
2022-09-12T23:56:27.788Z,25.88
2022-09-12T23:58:54.130Z,25.87
